sensor_id;sensor_type;location;lat;lon;timestamp;P1;durP1;ratioP1;P2;durP2;ratioP2
43919;SDS011;29578;51.946;5.874;2022-07-23T00:00:31;0.60;;;0.40;;
43919;SDS011;29578;51.946;5.874;2022-07-23T00:02:58;0.30;;;0.30;;
43919;SDS011;29578;51.946;5.874;2022-07-23T00:05:24;0.35;;;0.35;;
43919;SDS011;29578;51.946;5.874;2022-07-23T00:07:49;0.35;;;0.35;;
43919;SDS011;29578;51.946;5.874;2022-07-23T00:10:15;0.38;;;0.32;;
43919;SDS011;29578;51.946;5.874;2022-07-23T00:12:41;0.30;;;0.30;;
43919;SDS011;29578;51.946;5.874;2022-07-23T00:15:07;0.25;;;0.25;;
43919;SDS011;29578;51.946;5.874;2022-07-23T00:17:34;0.73;;;0.38;;
43919;SDS011;29578;51.946;5.874;2022-07-23T00:20:00;0.63;;;0.30;;
43919;SDS011;29578;51.946;5.874;2022-07-23T00:22:26;0.20;;;0.20;;
43919;SDS011;29578;51.946;5.874;2022-07-23T00:24:54;0.28;;;0.28;;
43919;SDS011;29578;51.946;5.874;2022-07-23T00:27:20;0.38;;;0.38;;
43919;SDS011;29578;51.946;5.874;2022-07-23T00:29:46;0.20;;;0.20;;
43919;SDS011;29578;51.946;5.874;2022-07-23T00:32:11;0.40;;;0.32;;
43919;SDS011;29578;51.946;5.874;2022-07-23T00:34:37;0.30;;;0.20;;
43919;SDS011;29578;51.946;5.874;2022-07-23T00:37:03;0.40;;;0.40;;
43919;SDS011;29578;51.946;5.874;2022-07-23T00:39:28;0.30;;;0.30;;
43919;SDS011;29578;51.946;5.874;2022-07-23T00:41:54;0.40;;;0.40;;
43919;SDS011;29578;51.946;5.874;2022-07-23T00:44:22;0.35;;;0.30;;
43919;SDS011;29578;51.946;5.874;2022-07-23T00:46:50;0.22;;;0.22;;
43919;SDS011;29578;51.946;5.874;2022-07-23T00:49:20;0.40;;;0.30;;
43919;SDS011;29578;51.946;5.874;2022-07-23T00:51:47;0.20;;;0.20;;
43919;SDS011;29578;51.946;5.874;2022-07-23T00:54:14;0.30;;;0.30;;
43919;SDS011;29578;51.946;5.874;2022-07-23T00:56:41;0.30;;;0.30;;
43919;SDS011;29578;51.946;5.874;2022-07-23T00:59:08;0.40;;;0.40;;
43919;SDS011;29578;51.946;5.874;2022-07-23T01:01:34;0.40;;;0.40;;
43919;SDS011;29578;51.946;5.874;2022-07-23T01:04:00;0.30;;;0.30;;
43919;SDS011;29578;51.946;5.874;2022-07-23T01:06:26;0.20;;;0.20;;
43919;SDS011;29578;51.946;5.874;2022-07-23T01:08:52;0.40;;;0.40;;
43919;SDS011;29578;51.946;5.874;2022-07-23T01:11:19;0.50;;;0.43;;
43919;SDS011;29578;51.946;5.874;2022-07-23T01:13:47;0.32;;;0.32;;
43919;SDS011;29578;51.946;5.874;2022-07-23T01:16:13;0.45;;;0.30;;
43919;SDS011;29578;51.946;5.874;2022-07-23T01:18:39;0.30;;;0.30;;
43919;SDS011;29578;51.946;5.874;2022-07-23T01:21:05;0.28;;;0.28;;
43919;SDS011;29578;51.946;5.874;2022-07-23T01:23:31;0.35;;;0.35;;
43919;SDS011;29578;51.946;5.874;2022-07-23T01:25:57;0.32;;;0.32;;
43919;SDS011;29578;51.946;5.874;2022-07-23T01:28:23;0.30;;;0.30;;
43919;SDS011;29578;51.946;5.874;2022-07-23T01:30:48;1.00;;;0.38;;
43919;SDS011;29578;51.946;5.874;2022-07-23T01:33:14;0.30;;;0.30;;
43919;SDS011;29578;51.946;5.874;2022-07-23T01:35:40;0.40;;;0.40;;
43919;SDS011;29578;51.946;5.874;2022-07-23T01:38:06;0.30;;;0.30;;
43919;SDS011;29578;51.946;5.874;2022-07-23T01:40:32;0.40;;;0.40;;
43919;SDS011;29578;51.946;5.874;2022-07-23T01:42:58;0.30;;;0.30;;
43919;SDS011;29578;51.946;5.874;2022-07-23T01:45:24;0.35;;;0.35;;
43919;SDS011;29578;51.946;5.874;2022-07-23T01:47:50;0.30;;;0.30;;
43919;SDS011;29578;51.946;5.874;2022-07-23T01:50:16;0.50;;;0.40;;
43919;SDS011;29578;51.946;5.874;2022-07-23T01:52:43;0.50;;;0.40;;
43919;SDS011;29578;51.946;5.874;2022-07-23T01:55:09;0.30;;;0.30;;
43919;SDS011;29578;51.946;5.874;2022-07-23T01:57:34;0.30;;;0.30;;
43919;SDS011;29578;51.946;5.874;2022-07-23T02:00:00;1.02;;;0.40;;
43919;SDS011;29578;51.946;5.874;2022-07-23T02:02:26;0.30;;;0.30;;
43919;SDS011;29578;51.946;5.874;2022-07-23T02:04:52;0.32;;;0.32;;
43919;SDS011;29578;51.946;5.874;2022-07-23T02:07:18;0.43;;;0.40;;
43919;SDS011;29578;51.946;5.874;2022-07-23T02:09:44;0.50;;;0.50;;
43919;SDS011;29578;51.946;5.874;2022-07-23T02:12:10;0.28;;;0.28;;
43919;SDS011;29578;51.946;5.874;2022-07-23T02:14:35;0.22;;;0.22;;
43919;SDS011;29578;51.946;5.874;2022-07-23T02:17:01;0.20;;;0.20;;
43919;SDS011;29578;51.946;5.874;2022-07-23T02:19:27;0.30;;;0.30;;
43919;SDS011;29578;51.946;5.874;2022-07-23T02:21:52;0.30;;;0.30;;
43919;SDS011;29578;51.946;5.874;2022-07-23T02:24:19;0.30;;;0.30;;
43919;SDS011;29578;51.946;5.874;2022-07-23T02:26:45;0.57;;;0.40;;
43919;SDS011;29578;51.946;5.874;2022-07-23T02:29:11;0.25;;;0.25;;
43919;SDS011;29578;51.946;5.874;2022-07-23T02:31:36;0.30;;;0.30;;
43919;SDS011;29578;51.946;5.874;2022-07-23T02:34:02;0.20;;;0.20;;
43919;SDS011;29578;51.946;5.874;2022-07-23T02:36:28;0.47;;;0.47;;
43919;SDS011;29578;51.946;5.874;2022-07-23T02:38:54;0.35;;;0.30;;
43919;SDS011;29578;51.946;5.874;2022-07-23T02:41:20;0.40;;;0.40;;
43919;SDS011;29578;51.946;5.874;2022-07-23T02:43:45;0.52;;;0.40;;
43919;SDS011;29578;51.946;5.874;2022-07-23T02:46:11;0.32;;;0.32;;
43919;SDS011;29578;51.946;5.874;2022-07-23T02:48:37;0.30;;;0.30;;
43919;SDS011;29578;51.946;5.874;2022-07-23T02:51:02;0.30;;;0.30;;
43919;SDS011;29578;51.946;5.874;2022-07-23T02:53:28;0.35;;;0.35;;
43919;SDS011;29578;51.946;5.874;2022-07-23T02:55:54;0.20;;;0.20;;
43919;SDS011;29578;51.946;5.874;2022-07-23T02:58:19;0.30;;;0.30;;
43919;SDS011;29578;51.946;5.874;2022-07-23T03:00:45;0.25;;;0.22;;
43919;SDS011;29578;51.946;5.874;2022-07-23T03:03:11;0.30;;;0.30;;
43919;SDS011;29578;51.946;5.874;2022-07-23T03:05:36;0.40;;;0.40;;
43919;SDS011;29578;51.946;5.874;2022-07-23T03:08:02;0.30;;;0.30;;
43919;SDS011;29578;51.946;5.874;2022-07-23T03:10:28;0.30;;;0.30;;
43919;SDS011;29578;51.946;5.874;2022-07-23T03:12:53;0.30;;;0.30;;
43919;SDS011;29578;51.946;5.874;2022-07-23T03:15:19;0.25;;;0.20;;
43919;SDS011;29578;51.946;5.874;2022-07-23T03:17:45;0.30;;;0.30;;
43919;SDS011;29578;51.946;5.874;2022-07-23T03:20:11;0.30;;;0.30;;
43919;SDS011;29578;51.946;5.874;2022-07-23T03:22:36;0.40;;;0.40;;
43919;SDS011;29578;51.946;5.874;2022-07-23T03:25:02;0.50;;;0.40;;
43919;SDS011;29578;51.946;5.874;2022-07-23T03:27:29;0.32;;;0.32;;
43919;SDS011;29578;51.946;5.874;2022-07-23T03:29:56;0.85;;;0.40;;
43919;SDS011;29578;51.946;5.874;2022-07-23T03:32:24;0.20;;;0.20;;
43919;SDS011;29578;51.946;5.874;2022-07-23T03:34:50;0.30;;;0.30;;
43919;SDS011;29578;51.946;5.874;2022-07-23T03:37:17;0.30;;;0.30;;
43919;SDS011;29578;51.946;5.874;2022-07-23T03:39:43;0.28;;;0.28;;
43919;SDS011;29578;51.946;5.874;2022-07-23T03:42:09;0.30;;;0.30;;
43919;SDS011;29578;51.946;5.874;2022-07-23T03:44:35;0.30;;;0.30;;
43919;SDS011;29578;51.946;5.874;2022-07-23T03:47:03;0.40;;;0.40;;
43919;SDS011;29578;51.946;5.874;2022-07-23T03:49:30;0.43;;;0.43;;
43919;SDS011;29578;51.946;5.874;2022-07-23T03:51:56;0.20;;;0.20;;
43919;SDS011;29578;51.946;5.874;2022-07-23T03:54:23;0.32;;;0.32;;
43919;SDS011;29578;51.946;5.874;2022-07-23T03:56:48;0.30;;;0.30;;
43919;SDS011;29578;51.946;5.874;2022-07-23T03:59:14;0.25;;;0.25;;
43919;SDS011;29578;51.946;5.874;2022-07-23T04:01:40;0.47;;;0.47;;
43919;SDS011;29578;51.946;5.874;2022-07-23T04:04:05;0.50;;;0.30;;
43919;SDS011;29578;51.946;5.874;2022-07-23T04:06:33;0.30;;;0.30;;
43919;SDS011;29578;51.946;5.874;2022-07-23T04:08:59;0.30;;;0.30;;
43919;SDS011;29578;51.946;5.874;2022-07-23T04:11:24;0.30;;;0.30;;
43919;SDS011;29578;51.946;5.874;2022-07-23T04:13:51;0.40;;;0.40;;
43919;SDS011;29578;51.946;5.874;2022-07-23T04:16:16;0.30;;;0.30;;
43919;SDS011;29578;51.946;5.874;2022-07-23T04:18:42;0.30;;;0.30;;
43919;SDS011;29578;51.946;5.874;2022-07-23T04:21:08;0.20;;;0.20;;
43919;SDS011;29578;51.946;5.874;2022-07-23T04:23:33;0.30;;;0.30;;
43919;SDS011;29578;51.946;5.874;2022-07-23T04:25:59;0.20;;;0.20;;
43919;SDS011;29578;51.946;5.874;2022-07-23T04:28:25;0.30;;;0.30;;
43919;SDS011;29578;51.946;5.874;2022-07-23T04:30:51;0.30;;;0.30;;
43919;SDS011;29578;51.946;5.874;2022-07-23T04:33:17;0.30;;;0.30;;
43919;SDS011;29578;51.946;5.874;2022-07-23T04:35:42;0.30;;;0.30;;
43919;SDS011;29578;51.946;5.874;2022-07-23T04:38:08;0.40;;;0.40;;
43919;SDS011;29578;51.946;5.874;2022-07-23T04:40:34;1.05;;;0.38;;
43919;SDS011;29578;51.946;5.874;2022-07-23T04:42:59;0.38;;;0.30;;
43919;SDS011;29578;51.946;5.874;2022-07-23T04:45:26;0.52;;;0.30;;
43919;SDS011;29578;51.946;5.874;2022-07-23T04:47:52;0.30;;;0.30;;
43919;SDS011;29578;51.946;5.874;2022-07-23T04:50:17;0.63;;;0.30;;
43919;SDS011;29578;51.946;5.874;2022-07-23T04:52:47;0.30;;;0.30;;
43919;SDS011;29578;51.946;5.874;2022-07-23T04:55:13;0.20;;;0.20;;
43919;SDS011;29578;51.946;5.874;2022-07-23T04:57:39;0.20;;;0.20;;
43919;SDS011;29578;51.946;5.874;2022-07-23T05:00:05;0.30;;;0.30;;
43919;SDS011;29578;51.946;5.874;2022-07-23T05:02:31;0.20;;;0.20;;
43919;SDS011;29578;51.946;5.874;2022-07-23T05:04:57;0.30;;;0.30;;
43919;SDS011;29578;51.946;5.874;2022-07-23T05:07:23;0.30;;;0.30;;
43919;SDS011;29578;51.946;5.874;2022-07-23T05:09:49;0.20;;;0.20;;
43919;SDS011;29578;51.946;5.874;2022-07-23T05:12:14;0.25;;;0.25;;
43919;SDS011;29578;51.946;5.874;2022-07-23T05:14:40;0.20;;;0.20;;
43919;SDS011;29578;51.946;5.874;2022-07-23T05:17:06;0.20;;;0.20;;
43919;SDS011;29578;51.946;5.874;2022-07-23T05:19:33;0.30;;;0.30;;
43919;SDS011;29578;51.946;5.874;2022-07-23T05:21:59;0.10;;;0.10;;
43919;SDS011;29578;51.946;5.874;2022-07-23T05:24:25;0.77;;;0.30;;
43919;SDS011;29578;51.946;5.874;2022-07-23T05:26:50;0.60;;;0.35;;
43919;SDS011;29578;51.946;5.874;2022-07-23T05:29:16;0.90;;;0.30;;
43919;SDS011;29578;51.946;5.874;2022-07-23T05:31:42;0.25;;;0.25;;
43919;SDS011;29578;51.946;5.874;2022-07-23T05:34:07;1.10;;;0.30;;
43919;SDS011;29578;51.946;5.874;2022-07-23T05:36:33;0.40;;;0.32;;
43919;SDS011;29578;51.946;5.874;2022-07-23T05:38:59;0.22;;;0.22;;
43919;SDS011;29578;51.946;5.874;2022-07-23T05:41:24;1.98;;;0.43;;
43919;SDS011;29578;51.946;5.874;2022-07-23T05:43:50;0.20;;;0.20;;
43919;SDS011;29578;51.946;5.874;2022-07-23T05:46:16;1.02;;;0.30;;
43919;SDS011;29578;51.946;5.874;2022-07-23T05:48:42;1.08;;;0.30;;
43919;SDS011;29578;51.946;5.874;2022-07-23T05:51:08;0.20;;;0.20;;
43919;SDS011;29578;51.946;5.874;2022-07-23T05:53:34;0.30;;;0.30;;
43919;SDS011;29578;51.946;5.874;2022-07-23T05:56:00;0.20;;;0.20;;
43919;SDS011;29578;51.946;5.874;2022-07-23T05:58:26;0.20;;;0.20;;
43919;SDS011;29578;51.946;5.874;2022-07-23T06:00:52;0.47;;;0.30;;
43919;SDS011;29578;51.946;5.874;2022-07-23T06:03:18;0.20;;;0.20;;
43919;SDS011;29578;51.946;5.874;2022-07-23T06:05:44;0.68;;;0.30;;
43919;SDS011;29578;51.946;5.874;2022-07-23T06:08:10;0.30;;;0.20;;
43919;SDS011;29578;51.946;5.874;2022-07-23T06:10:36;0.15;;;0.15;;
43919;SDS011;29578;51.946;5.874;2022-07-23T06:13:02;0.30;;;0.30;;
43919;SDS011;29578;51.946;5.874;2022-07-23T06:15:27;0.17;;;0.17;;
43919;SDS011;29578;51.946;5.874;2022-07-23T06:17:53;0.15;;;0.15;;
43919;SDS011;29578;51.946;5.874;2022-07-23T06:20:19;0.13;;;0.13;;
43919;SDS011;29578;51.946;5.874;2022-07-23T06:22:45;0.30;;;0.30;;
43919;SDS011;29578;51.946;5.874;2022-07-23T06:25:11;0.32;;;0.32;;
43919;SDS011;29578;51.946;5.874;2022-07-23T06:27:36;0.38;;;0.38;;
43919;SDS011;29578;51.946;5.874;2022-07-23T06:30:02;0.30;;;0.30;;
43919;SDS011;29578;51.946;5.874;2022-07-23T06:32:28;0.32;;;0.32;;
43919;SDS011;29578;51.946;5.874;2022-07-23T06:34:54;0.22;;;0.22;;
43919;SDS011;29578;51.946;5.874;2022-07-23T06:37:20;0.20;;;0.20;;
43919;SDS011;29578;51.946;5.874;2022-07-23T06:39:45;0.30;;;0.30;;
43919;SDS011;29578;51.946;5.874;2022-07-23T06:42:11;0.30;;;0.30;;
43919;SDS011;29578;51.946;5.874;2022-07-23T06:44:37;0.30;;;0.30;;
43919;SDS011;29578;51.946;5.874;2022-07-23T06:47:03;0.20;;;0.20;;
43919;SDS011;29578;51.946;5.874;2022-07-23T06:49:28;0.30;;;0.30;;
43919;SDS011;29578;51.946;5.874;2022-07-23T06:51:54;0.35;;;0.35;;
43919;SDS011;29578;51.946;5.874;2022-07-23T06:54:20;0.20;;;0.20;;
43919;SDS011;29578;51.946;5.874;2022-07-23T06:56:45;0.40;;;0.30;;
43919;SDS011;29578;51.946;5.874;2022-07-23T06:59:11;0.20;;;0.20;;
43919;SDS011;29578;51.946;5.874;2022-07-23T07:01:37;0.20;;;0.20;;
43919;SDS011;29578;51.946;5.874;2022-07-23T07:04:03;0.40;;;0.40;;
43919;SDS011;29578;51.946;5.874;2022-07-23T07:06:29;0.32;;;0.32;;
43919;SDS011;29578;51.946;5.874;2022-07-23T07:08:54;0.30;;;0.30;;
43919;SDS011;29578;51.946;5.874;2022-07-23T07:11:21;0.40;;;0.40;;
43919;SDS011;29578;51.946;5.874;2022-07-23T07:13:46;0.20;;;0.20;;
43919;SDS011;29578;51.946;5.874;2022-07-23T07:16:12;0.30;;;0.30;;
43919;SDS011;29578;51.946;5.874;2022-07-23T07:18:38;0.90;;;0.47;;
43919;SDS011;29578;51.946;5.874;2022-07-23T07:21:04;0.30;;;0.30;;
43919;SDS011;29578;51.946;5.874;2022-07-23T07:23:29;0.20;;;0.20;;
43919;SDS011;29578;51.946;5.874;2022-07-23T07:25:55;0.65;;;0.40;;
43919;SDS011;29578;51.946;5.874;2022-07-23T07:28:21;0.20;;;0.20;;
43919;SDS011;29578;51.946;5.874;2022-07-23T07:30:46;0.30;;;0.30;;
43919;SDS011;29578;51.946;5.874;2022-07-23T07:33:12;0.25;;;0.25;;
43919;SDS011;29578;51.946;5.874;2022-07-23T07:35:38;0.30;;;0.30;;
43919;SDS011;29578;51.946;5.874;2022-07-23T07:38:03;0.30;;;0.30;;
43919;SDS011;29578;51.946;5.874;2022-07-23T07:40:29;0.65;;;0.50;;
43919;SDS011;29578;51.946;5.874;2022-07-23T07:42:54;1.48;;;0.50;;
43919;SDS011;29578;51.946;5.874;2022-07-23T07:45:22;0.60;;;0.60;;
43919;SDS011;29578;51.946;5.874;2022-07-23T07:47:49;0.77;;;0.43;;
43919;SDS011;29578;51.946;5.874;2022-07-23T07:50:15;0.43;;;0.43;;
43919;SDS011;29578;51.946;5.874;2022-07-23T07:52:41;0.30;;;0.30;;
43919;SDS011;29578;51.946;5.874;2022-07-23T07:55:08;0.38;;;0.38;;
43919;SDS011;29578;51.946;5.874;2022-07-23T07:57:35;0.32;;;0.32;;
43919;SDS011;29578;51.946;5.874;2022-07-23T08:00:01;0.50;;;0.50;;
43919;SDS011;29578;51.946;5.874;2022-07-23T08:02:27;0.30;;;0.30;;
43919;SDS011;29578;51.946;5.874;2022-07-23T08:04:53;0.40;;;0.40;;
43919;SDS011;29578;51.946;5.874;2022-07-23T08:07:19;0.73;;;0.45;;
43919;SDS011;29578;51.946;5.874;2022-07-23T08:09:45;0.30;;;0.30;;
43919;SDS011;29578;51.946;5.874;2022-07-23T08:12:10;0.40;;;0.40;;
43919;SDS011;29578;51.946;5.874;2022-07-23T08:14:36;0.40;;;0.40;;
43919;SDS011;29578;51.946;5.874;2022-07-23T08:17:02;0.55;;;0.40;;
43919;SDS011;29578;51.946;5.874;2022-07-23T08:19:27;0.40;;;0.40;;
43919;SDS011;29578;51.946;5.874;2022-07-23T08:21:53;0.30;;;0.30;;
43919;SDS011;29578;51.946;5.874;2022-07-23T08:24:19;0.40;;;0.40;;
43919;SDS011;29578;51.946;5.874;2022-07-23T08:26:44;0.50;;;0.47;;
43919;SDS011;29578;51.946;5.874;2022-07-23T08:29:10;1.33;;;0.40;;
43919;SDS011;29578;51.946;5.874;2022-07-23T08:31:36;0.43;;;0.40;;
43919;SDS011;29578;51.946;5.874;2022-07-23T08:34:01;0.57;;;0.57;;
43919;SDS011;29578;51.946;5.874;2022-07-23T08:36:28;0.30;;;0.30;;
43919;SDS011;29578;51.946;5.874;2022-07-23T08:38:57;0.47;;;0.40;;
43919;SDS011;29578;51.946;5.874;2022-07-23T08:41:24;0.50;;;0.50;;
43919;SDS011;29578;51.946;5.874;2022-07-23T08:43:50;0.40;;;0.40;;
43919;SDS011;29578;51.946;5.874;2022-07-23T08:46:17;0.40;;;0.40;;
43919;SDS011;29578;51.946;5.874;2022-07-23T08:48:45;0.65;;;0.40;;
43919;SDS011;29578;51.946;5.874;2022-07-23T08:51:13;0.43;;;0.43;;
43919;SDS011;29578;51.946;5.874;2022-07-23T08:53:39;0.40;;;0.40;;
43919;SDS011;29578;51.946;5.874;2022-07-23T08:56:07;0.60;;;0.50;;
43919;SDS011;29578;51.946;5.874;2022-07-23T08:58:33;0.95;;;0.35;;
43919;SDS011;29578;51.946;5.874;2022-07-23T09:00:59;1.25;;;0.63;;
43919;SDS011;29578;51.946;5.874;2022-07-23T09:03:27;0.93;;;0.50;;
43919;SDS011;29578;51.946;5.874;2022-07-23T09:05:56;0.40;;;0.40;;
43919;SDS011;29578;51.946;5.874;2022-07-23T09:08:24;0.40;;;0.40;;
43919;SDS011;29578;51.946;5.874;2022-07-23T09:10:59;0.80;;;0.50;;
43919;SDS011;29578;51.946;5.874;2022-07-23T09:13:28;0.30;;;0.30;;
43919;SDS011;29578;51.946;5.874;2022-07-23T09:15:59;0.50;;;0.50;;
43919;SDS011;29578;51.946;5.874;2022-07-23T09:18:28;0.38;;;0.38;;
43919;SDS011;29578;51.946;5.874;2022-07-23T09:23:40;0.47;;;0.47;;
43919;SDS011;29578;51.946;5.874;2022-07-23T09:31:22;0.93;;;0.52;;
43919;SDS011;29578;51.946;5.874;2022-07-23T09:33:49;0.40;;;0.40;;
43919;SDS011;29578;51.946;5.874;2022-07-23T09:36:15;0.50;;;0.50;;
43919;SDS011;29578;51.946;5.874;2022-07-23T09:38:51;0.40;;;0.40;;
43919;SDS011;29578;51.946;5.874;2022-07-23T09:41:17;0.50;;;0.50;;
43919;SDS011;29578;51.946;5.874;2022-07-23T09:43:43;0.50;;;0.50;;
43919;SDS011;29578;51.946;5.874;2022-07-23T09:48:49;0.40;;;0.40;;
43919;SDS011;29578;51.946;5.874;2022-07-23T09:51:17;0.40;;;0.40;;
43919;SDS011;29578;51.946;5.874;2022-07-23T09:53:50;0.50;;;0.50;;
43919;SDS011;29578;51.946;5.874;2022-07-23T09:56:16;0.30;;;0.30;;
43919;SDS011;29578;51.946;5.874;2022-07-23T09:58:44;0.30;;;0.30;;
43919;SDS011;29578;51.946;5.874;2022-07-23T10:01:15;0.80;;;0.52;;
43919;SDS011;29578;51.946;5.874;2022-07-23T10:03:41;0.40;;;0.40;;
43919;SDS011;29578;51.946;5.874;2022-07-23T10:06:08;0.40;;;0.40;;
43919;SDS011;29578;51.946;5.874;2022-07-23T10:08:35;0.50;;;0.50;;
43919;SDS011;29578;51.946;5.874;2022-07-23T10:11:04;0.40;;;0.40;;
43919;SDS011;29578;51.946;5.874;2022-07-23T10:13:30;0.43;;;0.43;;
43919;SDS011;29578;51.946;5.874;2022-07-23T10:16:16;0.40;;;0.40;;
43919;SDS011;29578;51.946;5.874;2022-07-23T10:18:42;2.03;;;0.50;;
43919;SDS011;29578;51.946;5.874;2022-07-23T10:21:08;0.40;;;0.40;;
43919;SDS011;29578;51.946;5.874;2022-07-23T10:23:36;0.40;;;0.40;;
43919;SDS011;29578;51.946;5.874;2022-07-23T10:29:02;0.43;;;0.43;;
43919;SDS011;29578;51.946;5.874;2022-07-23T10:31:56;0.70;;;0.50;;
43919;SDS011;29578;51.946;5.874;2022-07-23T10:34:41;0.32;;;0.32;;
43919;SDS011;29578;51.946;5.874;2022-07-23T10:37:27;0.50;;;0.50;;
43919;SDS011;29578;51.946;5.874;2022-07-23T10:42:43;0.40;;;0.40;;
43919;SDS011;29578;51.946;5.874;2022-07-23T10:47:55;0.40;;;0.40;;
43919;SDS011;29578;51.946;5.874;2022-07-23T10:50:36;0.40;;;0.40;;
43919;SDS011;29578;51.946;5.874;2022-07-23T10:53:10;0.98;;;0.52;;
43919;SDS011;29578;51.946;5.874;2022-07-23T10:55:41;0.52;;;0.52;;
43919;SDS011;29578;51.946;5.874;2022-07-23T10:58:09;0.77;;;0.60;;
43919;SDS011;29578;51.946;5.874;2022-07-23T11:00:35;2.15;;;0.50;;
43919;SDS011;29578;51.946;5.874;2022-07-23T11:03:03;0.30;;;0.30;;
43919;SDS011;29578;51.946;5.874;2022-07-23T11:05:49;0.30;;;0.30;;
43919;SDS011;29578;51.946;5.874;2022-07-23T11:08:15;0.32;;;0.32;;
43919;SDS011;29578;51.946;5.874;2022-07-23T11:10:44;0.50;;;0.50;;
43919;SDS011;29578;51.946;5.874;2022-07-23T11:13:29;0.60;;;0.60;;
43919;SDS011;29578;51.946;5.874;2022-07-23T11:16:04;0.52;;;0.52;;
43919;SDS011;29578;51.946;5.874;2022-07-23T11:24:09;0.45;;;0.45;;
43919;SDS011;29578;51.946;5.874;2022-07-23T11:26:45;0.57;;;0.57;;
43919;SDS011;29578;51.946;5.874;2022-07-23T11:32:05;0.68;;;0.68;;
43919;SDS011;29578;51.946;5.874;2022-07-23T11:34:35;0.50;;;0.50;;
43919;SDS011;29578;51.946;5.874;2022-07-23T11:37:05;0.50;;;0.50;;
43919;SDS011;29578;51.946;5.874;2022-07-23T11:39:33;0.75;;;0.50;;
43919;SDS011;29578;51.946;5.874;2022-07-23T11:41:59;0.70;;;0.40;;
43919;SDS011;29578;51.946;5.874;2022-07-23T11:44:28;2.05;;;0.68;;
43919;SDS011;29578;51.946;5.874;2022-07-23T11:46:56;0.50;;;0.50;;
43919;SDS011;29578;51.946;5.874;2022-07-23T11:49:23;0.52;;;0.40;;
43919;SDS011;29578;51.946;5.874;2022-07-23T11:54:31;0.40;;;0.40;;
43919;SDS011;29578;51.946;5.874;2022-07-23T11:56:57;0.70;;;0.70;;
43919;SDS011;29578;51.946;5.874;2022-07-23T11:59:25;0.50;;;0.50;;
43919;SDS011;29578;51.946;5.874;2022-07-23T12:02:00;0.55;;;0.50;;
43919;SDS011;29578;51.946;5.874;2022-07-23T12:09:57;0.45;;;0.45;;
43919;SDS011;29578;51.946;5.874;2022-07-23T12:12:25;1.02;;;0.70;;
43919;SDS011;29578;51.946;5.874;2022-07-23T12:14:51;0.60;;;0.60;;
43919;SDS011;29578;51.946;5.874;2022-07-23T12:17:20;0.50;;;0.50;;
43919;SDS011;29578;51.946;5.874;2022-07-23T12:19:51;0.43;;;0.38;;
43919;SDS011;29578;51.946;5.874;2022-07-23T12:22:17;0.45;;;0.45;;
43919;SDS011;29578;51.946;5.874;2022-07-23T12:24:59;0.52;;;0.52;;
43919;SDS011;29578;51.946;5.874;2022-07-23T12:27:28;0.50;;;0.50;;
43919;SDS011;29578;51.946;5.874;2022-07-23T12:29:54;0.65;;;0.65;;
43919;SDS011;29578;51.946;5.874;2022-07-23T12:32:21;0.55;;;0.55;;
43919;SDS011;29578;51.946;5.874;2022-07-23T12:34:49;0.63;;;0.63;;
43919;SDS011;29578;51.946;5.874;2022-07-23T12:37:30;0.50;;;0.50;;
43919;SDS011;29578;51.946;5.874;2022-07-23T12:39:58;0.40;;;0.40;;
43919;SDS011;29578;51.946;5.874;2022-07-23T12:42:43;0.50;;;0.50;;
43919;SDS011;29578;51.946;5.874;2022-07-23T12:45:10;0.88;;;0.60;;
43919;SDS011;29578;51.946;5.874;2022-07-23T12:47:52;1.00;;;0.50;;
43919;SDS011;29578;51.946;5.874;2022-07-23T12:50:31;0.47;;;0.47;;
43919;SDS011;29578;51.946;5.874;2022-07-23T12:53:02;0.50;;;0.50;;
43919;SDS011;29578;51.946;5.874;2022-07-23T12:55:30;0.52;;;0.52;;
43919;SDS011;29578;51.946;5.874;2022-07-23T12:58:04;0.45;;;0.45;;
43919;SDS011;29578;51.946;5.874;2022-07-23T13:00:34;0.60;;;0.60;;
43919;SDS011;29578;51.946;5.874;2022-07-23T13:06:04;0.70;;;0.70;;
43919;SDS011;29578;51.946;5.874;2022-07-23T13:08:34;1.03;;;0.70;;
43919;SDS011;29578;51.946;5.874;2022-07-23T13:11:01;0.60;;;0.60;;
43919;SDS011;29578;51.946;5.874;2022-07-23T13:13:28;0.50;;;0.50;;
43919;SDS011;29578;51.946;5.874;2022-07-23T13:15:56;0.60;;;0.50;;
43919;SDS011;29578;51.946;5.874;2022-07-23T13:18:23;0.60;;;0.60;;
43919;SDS011;29578;51.946;5.874;2022-07-23T13:20:51;0.77;;;0.63;;
43919;SDS011;29578;51.946;5.874;2022-07-23T13:23:17;0.70;;;0.70;;
43919;SDS011;29578;51.946;5.874;2022-07-23T13:25:43;0.60;;;0.60;;
43919;SDS011;29578;51.946;5.874;2022-07-23T13:28:11;0.50;;;0.50;;
43919;SDS011;29578;51.946;5.874;2022-07-23T13:30:38;0.60;;;0.60;;
43919;SDS011;29578;51.946;5.874;2022-07-23T13:33:04;0.65;;;0.65;;
43919;SDS011;29578;51.946;5.874;2022-07-23T13:35:30;0.73;;;0.70;;
43919;SDS011;29578;51.946;5.874;2022-07-23T13:37:56;0.60;;;0.60;;
43919;SDS011;29578;51.946;5.874;2022-07-23T13:40:22;0.60;;;0.57;;
43919;SDS011;29578;51.946;5.874;2022-07-23T13:42:48;0.68;;;0.55;;
43919;SDS011;29578;51.946;5.874;2022-07-23T13:45:13;0.30;;;0.30;;
43919;SDS011;29578;51.946;5.874;2022-07-23T13:47:40;0.50;;;0.50;;
43919;SDS011;29578;51.946;5.874;2022-07-23T13:50:06;0.50;;;0.50;;
43919;SDS011;29578;51.946;5.874;2022-07-23T13:52:33;0.63;;;0.63;;
43919;SDS011;29578;51.946;5.874;2022-07-23T13:55:00;0.43;;;0.43;;
43919;SDS011;29578;51.946;5.874;2022-07-23T13:57:27;0.90;;;0.60;;
43919;SDS011;29578;51.946;5.874;2022-07-23T13:59:53;0.50;;;0.50;;
43919;SDS011;29578;51.946;5.874;2022-07-23T14:02:19;0.45;;;0.45;;
43919;SDS011;29578;51.946;5.874;2022-07-23T14:04:44;0.60;;;0.60;;
43919;SDS011;29578;51.946;5.874;2022-07-23T14:07:11;1.15;;;0.60;;
43919;SDS011;29578;51.946;5.874;2022-07-23T14:09:36;0.55;;;0.50;;
43919;SDS011;29578;51.946;5.874;2022-07-23T14:12:03;0.68;;;0.68;;
43919;SDS011;29578;51.946;5.874;2022-07-23T14:14:29;0.60;;;0.60;;
43919;SDS011;29578;51.946;5.874;2022-07-23T14:16:55;1.45;;;0.95;;
43919;SDS011;29578;51.946;5.874;2022-07-23T14:19:21;0.88;;;0.80;;
43919;SDS011;29578;51.946;5.874;2022-07-23T14:21:47;0.93;;;0.80;;
43919;SDS011;29578;51.946;5.874;2022-07-23T14:24:14;1.02;;;0.73;;
43919;SDS011;29578;51.946;5.874;2022-07-23T14:26:40;0.93;;;0.80;;
43919;SDS011;29578;51.946;5.874;2022-07-23T14:29:06;0.60;;;0.60;;
43919;SDS011;29578;51.946;5.874;2022-07-23T14:31:32;0.73;;;0.70;;
43919;SDS011;29578;51.946;5.874;2022-07-23T14:33:58;1.10;;;0.82;;
43919;SDS011;29578;51.946;5.874;2022-07-23T14:36:24;0.93;;;0.75;;
43919;SDS011;29578;51.946;5.874;2022-07-23T14:38:51;1.55;;;0.88;;
43919;SDS011;29578;51.946;5.874;2022-07-23T14:41:17;0.60;;;0.60;;
43919;SDS011;29578;51.946;5.874;2022-07-23T14:43:43;0.57;;;0.57;;
43919;SDS011;29578;51.946;5.874;2022-07-23T14:46:09;0.80;;;0.70;;
43919;SDS011;29578;51.946;5.874;2022-07-23T14:48:36;0.80;;;0.80;;
43919;SDS011;29578;51.946;5.874;2022-07-23T14:51:01;0.80;;;0.73;;
43919;SDS011;29578;51.946;5.874;2022-07-23T14:53:27;0.70;;;0.70;;
43919;SDS011;29578;51.946;5.874;2022-07-23T14:55:53;0.88;;;0.68;;
43919;SDS011;29578;51.946;5.874;2022-07-23T14:58:20;0.88;;;0.50;;
43919;SDS011;29578;51.946;5.874;2022-07-23T15:00:46;0.80;;;0.80;;
43919;SDS011;29578;51.946;5.874;2022-07-23T15:03:12;0.68;;;0.60;;
43919;SDS011;29578;51.946;5.874;2022-07-23T15:05:37;0.55;;;0.55;;
43919;SDS011;29578;51.946;5.874;2022-07-23T15:08:03;0.70;;;0.70;;
43919;SDS011;29578;51.946;5.874;2022-07-23T15:10:29;0.65;;;0.65;;
43919;SDS011;29578;51.946;5.874;2022-07-23T15:12:55;0.63;;;0.63;;
43919;SDS011;29578;51.946;5.874;2022-07-23T15:15:20;0.50;;;0.50;;
43919;SDS011;29578;51.946;5.874;2022-07-23T15:17:46;0.60;;;0.60;;
43919;SDS011;29578;51.946;5.874;2022-07-23T15:20:12;0.60;;;0.60;;
43919;SDS011;29578;51.946;5.874;2022-07-23T15:22:37;0.57;;;0.57;;
43919;SDS011;29578;51.946;5.874;2022-07-23T15:25:04;0.70;;;0.70;;